createdAt,value
2023-06-17T00:03:35.925Z,17.95
2023-06-17T00:08:38.921Z,19.17
2023-06-17T00:13:43.069Z,19.25
2023-06-17T00:18:45.831Z,19.15
2023-06-17T00:23:48.648Z,18.85
2023-06-17T00:28:52.796Z,18.15
2023-06-17T00:33:55.573Z,18.17
2023-06-17T00:38:58.459Z,19.33
2023-06-17T00:44:02.985Z,20.17
2023-06-17T00:49:06.828Z,19.27
2023-06-17T00:54:10.508Z,22.33
2023-06-17T00:59:15.349Z,20.98
2023-06-17T01:04:18.209Z,21.52
2023-06-17T01:09:26.062Z,21.85
2023-06-17T01:14:32.661Z,20.67
2023-06-17T01:19:36.662Z,21.63
2023-06-17T01:24:41.509Z,22.05
2023-06-17T01:29:48.193Z,22.33
2023-06-17T01:34:57.579Z,23.73
2023-06-17T01:40:07.610Z,21.17
2023-06-17T01:45:11.397Z,23.15
2023-06-17T01:50:19.829Z,23.42
2023-06-17T01:55:24.513Z,24.27
2023-06-17T02:00:27.894Z,22.85
2023-06-17T02:05:34.302Z,24.23
2023-06-17T02:10:38.492Z,22.48
2023-06-17T02:15:43.870Z,21.45
2023-06-17T02:20:48.787Z,22.15
2023-06-17T02:25:53.851Z,23.85
2023-06-17T02:30:56.734Z,22.85
2023-06-17T02:35:59.729Z,23.75
2023-06-17T02:41:03.876Z,23.88
2023-06-17T02:46:06.894Z,21.95
2023-06-17T02:51:10.458Z,21.95
2023-06-17T02:56:14.696Z,21.55
2023-06-17T03:01:18.129Z,22.27
2023-06-17T03:06:22.880Z,21.27
2023-06-17T03:11:29.911Z,20.40
2023-06-17T03:16:36.238Z,20.77
2023-06-17T03:21:42.088Z,20.60
2023-06-17T03:26:47.284Z,22.15
2023-06-17T03:31:51.284Z,21.40
2023-06-17T03:36:54.754Z,18.58
2023-06-17T03:41:59.508Z,20.90
2023-06-17T03:47:03.524Z,20.90
2023-06-17T03:52:08.794Z,21.08
2023-06-17T03:57:13.563Z,21.00
2023-06-17T04:02:16.629Z,20.85
2023-06-17T04:07:19.503Z,21.85
2023-06-17T04:12:23.733Z,22.67
2023-06-17T04:17:26.905Z,21.38
2023-06-17T04:22:29.736Z,22.08
2023-06-17T04:27:34.105Z,22.27
2023-06-17T04:32:40.229Z,22.67
2023-06-17T04:37:50.234Z,21.67
2023-06-17T04:42:54.888Z,21.30
2023-06-17T04:48:05.090Z,21.00
2023-06-17T04:53:08.827Z,21.42
2023-06-17T04:58:15.125Z,19.48
2023-06-17T05:03:31.707Z,21.02
2023-06-17T05:08:34.655Z,21.95
2023-06-17T05:13:40.552Z,21.98
2023-06-17T05:18:44.309Z,21.83
2023-06-17T05:23:47.289Z,21.65
2023-06-17T05:28:52.127Z,20.10
2023-06-17T05:33:55.023Z,20.10
2023-06-17T05:38:57.955Z,21.27
2023-06-17T05:44:02.422Z,20.73
2023-06-17T05:49:06.489Z,20.73
2023-06-17T05:54:09.447Z,20.33
2023-06-17T05:59:14.352Z,20.23
2023-06-17T06:04:19.078Z,18.70
2023-06-17T06:09:22.126Z,19.20
2023-06-17T06:14:26.520Z,20.77
2023-06-17T06:19:30.902Z,19.83
2023-06-17T06:24:33.743Z,20.25
2023-06-17T06:29:39.868Z,19.77
2023-06-17T06:34:42.889Z,20.15
2023-06-17T06:39:45.937Z,18.45
2023-06-17T06:44:50.972Z,18.65
2023-06-17T06:49:54.010Z,19.52
2023-06-17T06:54:56.973Z,18.92
2023-06-17T07:00:01.227Z,18.85
2023-06-17T07:05:05.199Z,18.55
2023-06-17T07:10:14.560Z,18.70
2023-06-17T07:15:19.025Z,18.63
2023-06-17T07:20:24.680Z,19.83
2023-06-17T07:25:27.995Z,17.83
2023-06-17T07:30:32.577Z,18.75
2023-06-17T07:35:35.634Z,16.65
2023-06-17T07:40:38.662Z,17.75
2023-06-17T07:45:43.031Z,17.55
2023-06-17T07:50:46.351Z,17.02
2023-06-17T07:55:49.685Z,16.40
2023-06-17T08:00:53.974Z,17.73
2023-06-17T08:05:58.253Z,17.52
2023-06-17T08:11:01.088Z,17.25
2023-06-17T08:16:05.598Z,16.10
2023-06-17T08:21:08.475Z,16.13
2023-06-17T08:26:12.746Z,16.33
2023-06-17T08:31:18.293Z,15.13
2023-06-17T08:36:21.082Z,14.30
2023-06-17T08:41:23.931Z,14.27
2023-06-17T08:46:29.008Z,14.77
2023-06-17T08:51:32.800Z,15.05
2023-06-17T08:56:37.025Z,13.70
2023-06-17T09:01:45.058Z,14.65
2023-06-17T09:06:48.447Z,13.65
2023-06-17T09:11:53.145Z,13.82
2023-06-17T09:16:57.672Z,13.63
2023-06-17T09:22:07.191Z,12.48
2023-06-17T09:27:21.496Z,12.43
2023-06-17T09:32:25.714Z,12.63
2023-06-17T09:37:28.579Z,12.45
2023-06-17T09:42:32.220Z,12.27
2023-06-17T09:47:38.775Z,12.25
2023-06-17T09:52:42.197Z,12.68
2023-06-17T09:57:46.089Z,13.13
2023-06-17T10:02:50.379Z,12.93
2023-06-17T10:07:55.070Z,12.27
2023-06-17T10:13:01.668Z,12.20
2023-06-17T10:18:09.141Z,10.93
2023-06-17T10:28:16.675Z,10.70
2023-06-17T10:33:28.529Z,10.48
2023-06-17T10:38:34.442Z,10.27
2023-06-17T10:43:38.404Z,9.10
2023-06-17T10:48:42.672Z,9.93
2023-06-17T10:53:50.053Z,10.30
2023-06-17T10:58:55.891Z,9.80
2023-06-17T11:04:08.610Z,9.45
2023-06-17T11:09:11.445Z,9.52
2023-06-17T11:14:14.534Z,9.57
2023-06-17T11:19:18.748Z,9.40
2023-06-17T11:24:21.774Z,8.25
2023-06-17T11:29:25.679Z,8.40
2023-06-17T11:34:33.231Z,9.07
2023-06-17T11:39:39.709Z,9.30
2023-06-17T11:44:42.983Z,8.93
2023-06-17T11:49:47.141Z,8.93
2023-06-17T11:54:50.712Z,9.10
2023-06-17T11:59:54.132Z,8.93
2023-06-17T12:05:02.122Z,8.95
2023-06-17T12:10:05.677Z,9.15
2023-06-17T12:20:19.895Z,10.27
2023-06-17T12:25:24.283Z,8.23
2023-06-17T12:30:27.497Z,8.40
2023-06-17T12:35:31.801Z,8.18
2023-06-17T12:40:34.724Z,7.55
2023-06-17T12:45:43.282Z,7.72
2023-06-17T12:50:47.913Z,8.10
2023-06-17T12:55:51.990Z,7.18
2023-06-17T13:00:55.286Z,6.97
2023-06-17T13:05:59.625Z,7.03
2023-06-17T13:11:02.588Z,7.38
2023-06-17T13:16:05.801Z,7.45
2023-06-17T13:21:10.543Z,6.57
2023-06-17T13:26:13.371Z,6.82
2023-06-17T13:31:16.239Z,7.00
2023-06-17T13:36:20.620Z,6.53
2023-06-17T13:41:23.497Z,6.82
2023-06-17T13:46:26.437Z,6.78
2023-06-17T13:51:30.779Z,6.80
2023-06-17T13:56:33.774Z,6.88
2023-06-17T14:01:36.673Z,6.47
2023-06-17T14:06:41.332Z,8.45
2023-06-17T14:11:44.281Z,11.13
2023-06-17T14:16:47.132Z,13.25
2023-06-17T14:22:00.825Z,14.25
2023-06-17T14:27:29.933Z,14.15
2023-06-17T14:32:33.081Z,12.43
2023-06-17T14:37:37.806Z,11.82
2023-06-17T14:42:41.119Z,11.57
2023-06-17T14:47:44.816Z,13.70
2023-06-17T14:52:50.852Z,11.27
2023-06-17T14:57:54.212Z,12.57
2023-06-17T15:03:00.978Z,12.25
2023-06-17T15:08:06.731Z,13.80
2023-06-17T15:13:09.865Z,11.93
2023-06-17T15:18:13.706Z,14.23
2023-06-17T15:23:17.996Z,13.15
2023-06-17T15:28:20.859Z,12.40
2023-06-17T15:33:24.033Z,11.60
2023-06-17T15:38:28.252Z,11.25
2023-06-17T15:43:31.051Z,12.13
2023-06-17T15:48:35.324Z,9.82
2023-06-17T15:53:39.515Z,10.65
2023-06-17T15:58:42.482Z,10.52
2023-06-17T16:03:46.149Z,10.48
2023-06-17T16:08:50.724Z,9.63
2023-06-17T16:13:53.576Z,10.75
2023-06-17T16:18:58.672Z,10.90
2023-06-17T16:24:03.378Z,12.05
2023-06-17T16:29:06.505Z,11.90
2023-06-17T16:34:09.343Z,9.45
2023-06-17T16:39:13.649Z,10.93
2023-06-17T16:44:16.961Z,11.15
2023-06-17T16:49:20.190Z,10.88
2023-06-17T16:54:24.555Z,9.65
2023-06-17T16:59:27.500Z,10.52
2023-06-17T17:04:30.371Z,9.65
2023-06-17T17:09:34.763Z,9.52
2023-06-17T17:14:37.583Z,6.50
2023-06-17T17:19:40.483Z,8.25
2023-06-17T17:24:45.463Z,7.80
2023-06-17T17:29:48.453Z,7.60
2023-06-17T17:34:51.256Z,10.57
2023-06-17T17:39:55.791Z,8.40
2023-06-17T17:44:58.686Z,8.05
2023-06-17T17:50:01.559Z,7.40
2023-06-17T17:55:06.395Z,7.40
2023-06-17T18:00:10.308Z,8.60
2023-06-17T18:05:15.676Z,9.13
2023-06-17T18:10:20.117Z,8.73
2023-06-17T18:15:23.248Z,9.60
2023-06-17T18:20:26.745Z,10.48
2023-06-17T18:25:30.918Z,10.13
2023-06-17T18:30:33.790Z,8.80
2023-06-17T18:35:36.578Z,9.35
2023-06-17T18:40:40.859Z,9.45
2023-06-17T18:45:43.673Z,9.30
2023-06-17T18:50:46.926Z,9.05
2023-06-17T18:55:51.315Z,8.45
2023-06-17T19:00:55.871Z,9.00
2023-06-17T19:05:58.743Z,8.82
2023-06-17T19:11:03.089Z,8.73
2023-06-17T19:16:06.125Z,9.23
2023-06-17T19:21:10.859Z,9.02
2023-06-17T19:26:15.414Z,9.38
2023-06-17T19:31:18.374Z,10.07
2023-06-17T19:36:21.204Z,10.10
2023-06-17T19:41:25.554Z,11.18
2023-06-17T19:46:29.004Z,13.85
2023-06-17T19:51:34.605Z,12.25
2023-06-17T19:56:38.909Z,10.98
2023-06-17T20:01:43.571Z,11.35
2023-06-17T20:06:46.475Z,11.75
2023-06-17T20:11:51.529Z,12.00
2023-06-17T20:16:54.680Z,12.23
2023-06-17T20:21:57.709Z,13.07
2023-06-17T20:27:02.189Z,13.68
2023-06-17T20:32:05.732Z,13.88
2023-06-17T20:37:08.637Z,13.98
2023-06-17T20:42:13.413Z,13.18
2023-06-17T20:47:19.652Z,14.60
2023-06-17T20:52:22.903Z,14.57
2023-06-17T20:57:27.045Z,15.32
2023-06-17T21:02:30.170Z,15.45
2023-06-17T21:07:33.116Z,15.77
2023-06-17T21:12:38.103Z,14.02
2023-06-17T21:17:43.783Z,14.15
2023-06-17T21:22:46.626Z,14.27
2023-06-17T21:27:50.773Z,13.93
2023-06-17T21:32:53.605Z,14.27
2023-06-17T21:37:56.576Z,14.50
2023-06-17T21:43:00.706Z,13.68
2023-06-17T21:48:03.525Z,13.27
2023-06-17T21:53:06.429Z,13.90
2023-06-17T21:58:10.707Z,13.68
2023-06-17T22:03:14.097Z,11.85
2023-06-17T22:08:20.214Z,12.02
2023-06-17T22:13:26.588Z,12.95
2023-06-17T22:18:29.401Z,11.85
2023-06-17T22:23:32.187Z,11.43
2023-06-17T22:28:36.690Z,11.93
2023-06-17T22:33:39.503Z,14.93
2023-06-17T22:38:42.298Z,13.30
2023-06-17T22:43:46.573Z,13.68
2023-06-17T22:48:49.379Z,12.93
2023-06-17T22:53:52.426Z,14.25
2023-06-17T22:58:56.636Z,13.63
2023-06-17T23:03:59.540Z,13.43
2023-06-17T23:09:02.306Z,14.65
2023-06-17T23:14:09.911Z,14.60
2023-06-17T23:19:12.682Z,14.82
2023-06-17T23:24:15.634Z,15.35
2023-06-17T23:29:19.899Z,15.93
2023-06-17T23:34:22.929Z,15.55
2023-06-17T23:39:25.720Z,15.60
2023-06-17T23:44:29.883Z,16.05
2023-06-17T23:49:35.534Z,15.02
2023-06-17T23:54:38.731Z,14.38
2023-06-17T23:59:43.178Z,16.27
